MMPR

Details ICAO MMPR (PVR)
Name Lic. Gustavo Diaz Ordaz Intl
Region Mexico
Timezone America/Mexico_City (UTC-5.0)
Plans Departing 297
Arriving 351
Stats Elevation 20 ft / 6 m (AMSL)
Location 20.680100° -105.254000°
Runways 1
Magnetic Variation 6.757° E
Sunrise 2019-04-24 12:36:52 UTC / 2019-04-24 07:36:52 Local
Sunset 2019-04-25 01:23:43 UTC / 2019-04-24 20:23:43 Local
Advertisement - Login to hide

Runways

ID Width Length Bearing (true/mag) Surface Threshold Overrun Markings Lighting
04 148 ft / 45 m 10,259 ft / 3,127 m 47.06° / 40.30° ASPHALT 0 ft / 0 m 187 ft / 57 m PREC-APP CENTERLINE EDGE THRESHOLD SALS REIL-OMNI
22 148 ft / 45 m 10,259 ft / 3,127 m 227.07° / 220.31° ASPHALT 0 ft / 0 m 187 ft / 57 m PREC-APP CENTERLINE EDGE THRESHOLD REIL-OMNI

Map

Weather


0- 5 10 15 20 25 30 35+ Temperature / °C

Clouds and Precipitation
Forecast for 2019-04-25 06:00 UTC. Updated 2 hours ago

Ground ~20,000 ft ~40,000 ft Winds

METAR

Not found

TAF

TAF MMPR 250448Z 2506/2612 34005KT P6SM SKC TX29/2520Z TN19/2521Z FM251800 23012KT P6SM SCT020 SCT120 BKN250 FM260600 34005KT P6SM SCT250

Frequencies

Approach 119.00 MHz Vallarta Approach
Tower 118.50 MHz Vallarta Tower
Recorded 127.50 MHz ATIS
Approach 121.30 MHz Vallarta Approach
Warning: Do not use this data for real-world aviation or navigation. No guarantee of current accuracy is given.